Time;durP1;ratioP1;P1;durP2;ratioP2;P2;SDS_P1;SDS_P2;PMS_P1;PMS_P2;Temp;Humidity;BMP_temperature;BMP_pressure;BME280_temperature;BME280_humidity;BME280_pressure;Samples;Min_cycle;Max_cycle;Signal;HPM_P1;HPM_P2
2022/10/28 00:01:06;;;;;;;;;;;21.00;72.80;;;;;;5047320;28;20488;-85
2022/10/28 00:03:32;;;;;;;;;;;21.10;72.10;;;;;;5047574;28;20019;-86
2022/10/28 00:06:04;;;;;;;;;;;21.00;72.30;;;;;;5047931;28;20011;-86
2022/10/28 00:08:30;;;;;;;;;;;21.10;71.90;;;;;;5045775;28;19917;-89
2022/10/28 00:11:07;;;;;;;;;;;21.00;72.10;;;;;;5048483;28;19924;-87
2022/10/28 00:13:33;;;;;;;;;;;20.90;72.70;;;;;;5029567;28;19917;-85
2022/10/28 00:16:02;;;;;;;;;;;21.10;71.80;;;;;;5048471;28;19959;-86
2022/10/28 00:18:28;;;;;;;;;;;21.10;71.50;;;;;;5053305;28;19921;-86
2022/10/28 00:20:58;;;;;;;;;;;21.20;71.30;;;;;;5029633;28;19923;-86
2022/10/28 00:23:24;;;;;;;;;;;20.70;86.40;;;;;;5048120;28;20595;-86
2022/10/28 00:25:49;;;;;;;;;;;19.90;85.10;;;;;;5051553;28;19921;-85
2022/10/28 00:28:15;;;;;;;;;;;20.80;80.40;;;;;;5048199;28;19927;-85
2022/10/28 00:30:40;;;;;;;;;;;20.90;76.30;;;;;;5048414;28;19924;-88
2022/10/28 00:33:06;;;;;;;;;;;21.10;74.50;;;;;;5030300;28;19923;-86
2022/10/28 00:35:32;;;;;;;;;;;20.90;73.30;;;;;;5030141;28;19919;-87
2022/10/28 00:37:58;;;;;;;;;;;21.00;72.50;;;;;;5047824;28;20413;-86
2022/10/28 00:40:24;;;;;;;;;;;21.20;71.00;;;;;;5046997;28;19943;-87
2022/10/28 00:42:50;;;;;;;;;;;20.90;71.60;;;;;;5019617;28;19948;-87
2022/10/28 00:45:15;;;;;;;;;;;21.20;70.90;;;;;;5029490;28;19943;-89
2022/10/28 00:47:41;;;;;;;;;;;21.20;70.40;;;;;;5048228;28;19916;-87
2022/10/28 00:50:10;;;;;;;;;;;21.10;71.20;;;;;;5029767;28;19951;-88
2022/10/28 00:52:36;;;;;;;;;;;21.10;70.90;;;;;;5029736;28;20410;-88
2022/10/28 00:55:01;;;;;;;;;;;20.90;71.70;;;;;;5030114;28;20026;-88
2022/10/28 00:57:29;;;;;;;;;;;20.90;71.00;;;;;;5026374;28;19917;-88
2022/10/28 00:59:56;;;;;;;;;;;20.90;71.00;;;;;;5045479;28;19924;-88
2022/10/28 01:02:21;;;;;;;;;;;20.80;70.80;;;;;;5030080;28;19916;-88
2022/10/28 01:04:47;;;;;;;;;;;20.70;72.00;;;;;;5048535;28;19931;-88
2022/10/28 01:07:13;;;;;;;;;;;20.70;71.70;;;;;;5030416;28;20019;-89
2022/10/28 01:09:39;;;;;;;;;;;20.80;71.10;;;;;;5049349;28;19909;-88
2022/10/28 01:12:08;;;;;;;;;;;20.60;74.40;;;;;;5030819;28;19920;-88
2022/10/28 01:14:33;;;;;;;;;;;20.30;76.60;;;;;;5030444;28;19947;-86
2022/10/28 01:17:08;;;;;;;;;;;20.50;78.20;;;;;;5030264;28;19916;-87
2022/10/28 01:19:36;;;;;;;;;;;20.70;74.10;;;;;;5030054;28;19921;-87
2022/10/28 01:22:21;;;;;;;;;;;20.90;71.70;;;;;;5029696;28;19917;-85
2022/10/28 01:25:05;;;;;;;;;;;20.90;71.60;;;;;;5031360;28;19916;-87
2022/10/28 01:27:33;;;;;;;;;;;20.80;71.70;;;;;;5039013;28;20007;-85
2022/10/28 01:30:06;;;;;;;;;;;20.90;70.30;;;;;;5033993;28;19917;-87
2022/10/28 01:32:31;;;;;;;;;;;20.80;69.80;;;;;;5033241;28;20505;-87
2022/10/28 01:34:57;;;;;;;;;;;20.60;71.70;;;;;;5051244;28;20003;-87
2022/10/28 01:37:32;;;;;;;;;;;20.50;72.60;;;;;;5051406;28;20003;-86
2022/10/28 01:40:09;;;;;;;;;;;20.70;70.70;;;;;;5051438;28;19924;-87
2022/10/28 01:42:40;;;;;;;;;;;20.60;70.90;;;;;;5049934;28;19917;-88
2022/10/28 01:45:14;;;;;;;;;;;20.70;69.70;;;;;;5044482;28;19921;-87
2022/10/28 01:48:00;;;;;;;;;;;20.60;71.00;;;;;;5027933;28;19920;-87
2022/10/28 01:50:29;;;;;;;;;;;20.80;69.40;;;;;;5050678;28;19923;-87
2022/10/28 01:52:57;;;;;;;;;;;20.60;69.60;;;;;;5032943;28;19921;-86
2022/10/28 01:55:25;;;;;;;;;;;20.80;68.80;;;;;;5032938;28;19916;-87
2022/10/28 01:57:51;;;;;;;;;;;20.90;67.90;;;;;;5050759;28;19919;-87
2022/10/28 02:00:17;;;;;;;;;;;20.90;68.00;;;;;;5051405;28;19926;-86
2022/10/28 02:02:43;;;;;;;;;;;20.80;68.10;;;;;;5032974;28;19917;-86
2022/10/28 02:05:27;;;;;;;;;;;20.70;68.20;;;;;;5032973;28;19936;-86
2022/10/28 02:07:56;;;;;;;;;;;20.60;68.00;;;;;;5032872;28;20312;-86
2022/10/28 02:10:23;;;;;;;;;;;20.90;66.20;;;;;;5050502;28;20436;-87
2022/10/28 02:12:53;;;;;;;;;;;20.70;66.50;;;;;;5051041;28;19908;-87
2022/10/28 02:15:31;;;;;;;;;;;20.70;66.40;;;;;;5050043;28;20082;-87
2022/10/28 02:18:06;;;;;;;;;;;20.80;65.80;;;;;;5027637;28;20447;-87
2022/10/28 02:20:31;;;;;;;;;;;20.70;65.90;;;;;;5050244;28;19923;-87
2022/10/28 02:23:07;;;;;;;;;;;20.80;65.60;;;;;;5050339;28;20000;-87
2022/10/28 02:25:52;;;;;;;;;;;20.70;65.20;;;;;;5050981;28;20204;-87
2022/10/28 02:28:22;;;;;;;;;;;20.80;64.30;;;;;;5048335;28;20416;-89
2022/10/28 02:30:56;;;;;;;;;;;20.80;64.80;;;;;;5033210;28;19912;-91
2022/10/28 02:33:24;;;;;;;;;;;20.70;64.00;;;;;;5032483;28;20119;-88
2022/10/28 02:35:51;;;;;;;;;;;20.80;63.80;;;;;;5030810;28;19917;-87
2022/10/28 02:38:28;;;;;;;;;;;20.70;64.10;;;;;;5049765;28;19917;-88
2022/10/28 02:40:58;;;;;;;;;;;20.80;63.50;;;;;;5050436;28;19971;-88
2022/10/28 02:43:24;;;;;;;;;;;20.80;63.70;;;;;;5042754;28;19920;-88
2022/10/28 02:45:52;;;;;;;;;;;20.90;62.80;;;;;;5032945;28;19916;-88
2022/10/28 02:48:20;;;;;;;;;;;20.90;62.50;;;;;;5032858;28;20363;-88
2022/10/28 02:50:49;;;;;;;;;;;21.00;62.40;;;;;;5033208;28;19913;-90
2022/10/28 02:53:18;;;;;;;;;;;21.00;62.70;;;;;;5017746;28;19950;-87
2022/10/28 02:55:46;;;;;;;;;;;20.90;62.20;;;;;;5032299;28;19950;-87
2022/10/28 02:58:12;;;;;;;;;;;20.90;62.60;;;;;;5044188;28;19913;-87
2022/10/28 03:00:42;;;;;;;;;;;20.90;61.50;;;;;;5050307;28;19916;-87
2022/10/28 03:03:07;;;;;;;;;;;21.10;61.50;;;;;;5021561;28;19917;-87
2022/10/28 03:05:33;;;;;;;;;;;21.00;61.50;;;;;;5031989;28;20523;-86
2022/10/28 03:07:58;;;;;;;;;;;21.00;60.60;;;;;;5050528;28;20307;-85
2022/10/28 03:10:24;;;;;;;;;;;21.00;61.50;;;;;;5049871;28;19923;-85
2022/10/28 03:12:49;;;;;;;;;;;20.90;60.90;;;;;;5031858;28;19912;-85
2022/10/28 03:15:15;;;;;;;;;;;20.90;60.60;;;;;;5050104;28;20031;-85
2022/10/28 03:17:40;;;;;;;;;;;20.80;60.60;;;;;;5031830;28;20024;-87
2022/10/28 03:20:06;;;;;;;;;;;20.80;61.00;;;;;;5031180;28;19956;-87
2022/10/28 03:22:32;;;;;;;;;;;20.40;61.60;;;;;;5049847;28;19920;-90
2022/10/28 03:24:57;;;;;;;;;;;20.30;62.00;;;;;;5031798;28;19920;-91
2022/10/28 03:27:23;;;;;;;;;;;20.30;62.80;;;;;;5032758;28;19936;-91
2022/10/28 03:29:48;;;;;;;;;;;19.90;63.90;;;;;;5051796;28;19982;-90
2022/10/28 03:32:14;;;;;;;;;;;19.90;63.60;;;;;;5050936;28;19920;-90
2022/10/28 03:34:39;;;;;;;;;;;20.10;62.80;;;;;;5045574;28;19912;-88
2022/10/28 03:37:05;;;;;;;;;;;20.10;62.30;;;;;;5031131;28;19921;-89
2022/10/28 03:39:31;;;;;;;;;;;20.30;61.80;;;;;;5049831;28;19917;-88
2022/10/28 03:41:56;;;;;;;;;;;20.40;61.40;;;;;;5048984;28;19981;-88
2022/10/28 03:44:22;;;;;;;;;;;20.30;61.40;;;;;;5050068;28;19924;-91
2022/10/28 03:46:48;;;;;;;;;;;20.20;61.80;;;;;;5051458;28;19988;-92
2022/10/28 03:49:13;;;;;;;;;;;20.10;61.70;;;;;;5034595;28;19917;-92
2022/10/28 03:51:39;;;;;;;;;;;20.30;61.20;;;;;;5034836;28;19916;-91
2022/10/28 03:54:04;;;;;;;;;;;20.50;60.60;;;;;;5033529;28;19935;-90
2022/10/28 03:56:30;;;;;;;;;;;20.20;61.30;;;;;;5029302;28;19948;-91
2022/10/28 03:58:55;;;;;;;;;;;20.30;60.70;;;;;;5032424;28;20329;-90
2022/10/28 04:01:21;;;;;;;;;;;20.20;61.20;;;;;;5032490;28;19920;-90
2022/10/28 04:03:46;;;;;;;;;;;20.20;60.70;;;;;;5050174;28;19920;-91
2022/10/28 04:06:13;;;;;;;;;;;20.40;60.50;;;;;;5049887;28;19921;-90
2022/10/28 04:08:38;;;;;;;;;;;20.30;60.60;;;;;;5032170;28;19916;-90
2022/10/28 04:11:04;;;;;;;;;;;20.30;60.80;;;;;;5050443;28;19919;-93
2022/10/28 04:13:29;;;;;;;;;;;20.30;60.40;;;;;;5032661;28;20471;-90
2022/10/28 04:15:55;;;;;;;;;;;20.20;61.00;;;;;;5031135;28;20459;-90
2022/10/28 04:18:21;;;;;;;;;;;20.30;59.90;;;;;;5038939;28;20015;-90
2022/10/28 04:20:46;;;;;;;;;;;20.30;60.60;;;;;;5048710;28;19917;-90
2022/10/28 04:23:15;;;;;;;;;;;20.50;60.00;;;;;;5049072;28;19939;-90
2022/10/28 04:25:41;;;;;;;;;;;20.30;60.50;;;;;;5031168;28;19917;-90
2022/10/28 04:28:06;;;;;;;;;;;20.10;60.60;;;;;;5048711;28;19917;-86
2022/10/28 04:30:32;;;;;;;;;;;20.20;60.90;;;;;;5030703;28;19917;-88
2022/10/28 04:32:57;;;;;;;;;;;20.10;61.10;;;;;;5047712;28;20669;-87
2022/10/28 04:35:23;;;;;;;;;;;20.30;60.80;;;;;;5030445;28;19917;-87
2022/10/28 04:37:49;;;;;;;;;;;20.20;60.70;;;;;;5048554;28;20055;-86
2022/10/28 04:40:14;;;;;;;;;;;20.10;60.90;;;;;;5030300;28;19994;-87
2022/10/28 04:42:40;;;;;;;;;;;20.50;60.00;;;;;;5047948;28;19917;-87
2022/10/28 04:45:06;;;;;;;;;;;20.40;59.90;;;;;;5048040;28;20050;-86
2022/10/28 04:47:31;;;;;;;;;;;20.40;60.00;;;;;;5048374;28;19948;-86
2022/10/28 04:49:57;;;;;;;;;;;20.40;60.00;;;;;;5029756;28;19960;-88
2022/10/28 04:52:23;;;;;;;;;;;20.50;59.80;;;;;;5047304;28;19973;-88
2022/10/28 04:54:48;;;;;;;;;;;20.50;60.50;;;;;;5047853;28;20350;-88
2022/10/28 04:57:14;;;;;;;;;;;20.50;59.80;;;;;;5047410;28;19913;-89
2022/10/28 04:59:39;;;;;;;;;;;20.50;59.70;;;;;;5031150;28;19950;-90
2022/10/28 05:02:05;;;;;;;;;;;20.40;60.10;;;;;;5050340;28;19921;-87
2022/10/28 05:04:30;;;;;;;;;;;20.30;60.20;;;;;;5047944;28;19920;-90
2022/10/28 05:06:56;;;;;;;;;;;20.20;60.30;;;;;;5030931;28;19983;-89
2022/10/28 05:09:21;;;;;;;;;;;20.20;60.40;;;;;;5030703;28;20463;-88
2022/10/28 05:12:34;;;;;;;;;;;20.20;60.60;;;;;;5031575;28;19917;-92
2022/10/28 05:15:02;;;;;;;;;;;20.30;60.10;;;;;;5026483;28;19928;-94
2022/10/28 05:17:27;;;;;;;;;;;20.10;60.60;;;;;;5022517;28;19968;-89
2022/10/28 05:19:53;;;;;;;;;;;20.40;60.10;;;;;;5050639;28;19959;-88
2022/10/28 05:22:18;;;;;;;;;;;20.10;60.70;;;;;;5033372;28;19968;-91
2022/10/28 05:24:44;;;;;;;;;;;19.90;61.20;;;;;;5049580;28;19912;-88
2022/10/28 05:27:11;;;;;;;;;;;19.80;61.60;;;;;;5046147;28;19923;-86
2022/10/28 05:29:36;;;;;;;;;;;19.80;62.10;;;;;;5047222;28;20462;-85
2022/10/28 05:32:02;;;;;;;;;;;19.90;61.20;;;;;;5047192;28;19967;-84
2022/10/28 05:34:27;;;;;;;;;;;19.80;61.60;;;;;;5030000;28;19947;-86
2022/10/28 05:36:53;;;;;;;;;;;19.90;61.80;;;;;;5047797;28;19917;-85
2022/10/28 05:39:19;;;;;;;;;;;19.90;61.60;;;;;;5047811;28;19920;-87
2022/10/28 05:41:44;;;;;;;;;;;19.90;62.20;;;;;;5046555;28;19921;-86
2022/10/28 05:44:10;;;;;;;;;;;19.70;62.50;;;;;;5047798;28;19943;-88
2022/10/28 05:46:35;;;;;;;;;;;19.60;63.30;;;;;;5029580;28;20401;-85
2022/10/28 05:49:01;;;;;;;;;;;19.50;63.50;;;;;;5028537;28;19924;-87
2022/10/28 05:51:26;;;;;;;;;;;19.50;63.10;;;;;;5046388;28;19947;-84
2022/10/28 05:53:52;;;;;;;;;;;19.40;62.90;;;;;;5046876;28;19974;-84
2022/10/28 05:56:17;;;;;;;;;;;19.60;64.10;;;;;;5045102;28;20677;-83
2022/10/28 05:58:43;;;;;;;;;;;19.60;63.00;;;;;;5046542;28;20026;-86
2022/10/28 06:01:08;;;;;;;;;;;19.60;65.40;;;;;;5028673;28;19916;-86
2022/10/28 06:03:34;;;;;;;;;;;19.70;65.80;;;;;;5044349;28;19984;-87
2022/10/28 06:06:00;;;;;;;;;;;19.60;67.40;;;;;;5028537;28;19917;-87
2022/10/28 06:08:25;;;;;;;;;;;19.50;66.80;;;;;;5047363;28;19920;-89
2022/10/28 06:10:52;;;;;;;;;;;19.70;64.00;;;;;;5029843;28;19917;-88
2022/10/28 06:13:18;;;;;;;;;;;19.70;65.80;;;;;;5033919;28;19986;-88
2022/10/28 06:15:43;;;;;;;;;;;19.80;63.60;;;;;;5034843;28;19924;-91
2022/10/28 06:18:09;;;;;;;;;;;20.10;62.20;;;;;;5033788;28;19923;-88
2022/10/28 06:20:34;;;;;;;;;;;20.00;62.90;;;;;;5032684;28;20004;-86
2022/10/28 06:23:00;;;;;;;;;;;20.10;62.60;;;;;;5050822;28;20463;-88
2022/10/28 06:25:26;;;;;;;;;;;20.10;63.20;;;;;;5032988;28;19917;-85
2022/10/28 06:27:52;;;;;;;;;;;20.20;62.60;;;;;;5049879;28;19921;-84
2022/10/28 06:30:18;;;;;;;;;;;20.10;62.60;;;;;;5031459;28;20026;-87
2022/10/28 06:32:43;;;;;;;;;;;19.90;64.40;;;;;;5030030;28;19981;-87
2022/10/28 06:35:09;;;;;;;;;;;19.70;65.30;;;;;;5049527;28;20266;-86
2022/10/28 06:37:34;;;;;;;;;;;20.10;62.70;;;;;;5050549;28;19924;-86
2022/10/28 06:40:00;;;;;;;;;;;20.50;61.80;;;;;;5031763;28;19917;-85
2022/10/28 06:42:25;;;;;;;;;;;20.40;62.20;;;;;;5049070;28;19941;-84
2022/10/28 06:44:53;;;;;;;;;;;20.40;63.40;;;;;;5050803;28;19971;-89
2022/10/28 06:47:19;;;;;;;;;;;20.30;63.00;;;;;;5051224;28;19924;-85
2022/10/28 06:49:44;;;;;;;;;;;20.10;63.00;;;;;;5049231;28;19913;-87
2022/10/28 06:52:10;;;;;;;;;;;20.50;61.80;;;;;;5031953;28;20027;-87
2022/10/28 06:54:35;;;;;;;;;;;20.70;61.30;;;;;;5032515;28;20007;-87
2022/10/28 06:57:01;;;;;;;;;;;20.70;61.60;;;;;;5031880;28;19916;-87
2022/10/28 06:59:26;;;;;;;;;;;20.70;61.60;;;;;;5031923;28;20803;-86
2022/10/28 07:01:52;;;;;;;;;;;20.60;62.20;;;;;;5031228;28;19967;-88
2022/10/28 07:04:17;;;;;;;;;;;20.70;61.90;;;;;;5026428;28;19920;-83
2022/10/28 07:06:43;;;;;;;;;;;20.70;61.60;;;;;;5040964;28;20367;-82
2022/10/28 07:09:12;;;;;;;;;;;20.60;61.90;;;;;;5029067;28;20335;-82
2022/10/28 07:11:37;;;;;;;;;;;20.60;62.00;;;;;;5032546;28;20019;-83
2022/10/28 07:14:03;;;;;;;;;;;20.50;62.40;;;;;;5035175;28;20004;-83
2022/10/28 07:16:28;;;;;;;;;;;20.50;62.50;;;;;;5016329;28;19917;-83
2022/10/28 07:18:54;;;;;;;;;;;20.50;62.90;;;;;;5012377;28;19920;-83
2022/10/28 07:21:23;;;;;;;;;;;20.40;62.70;;;;;;5034982;28;20016;-83
2022/10/28 07:23:48;;;;;;;;;;;20.50;62.40;;;;;;5038255;28;20412;-84
2022/10/28 07:26:14;;;;;;;;;;;20.40;62.80;;;;;;5044222;28;19913;-87
2022/10/28 07:28:41;;;;;;;;;;;20.40;63.00;;;;;;5026646;28;19983;-82
2022/10/28 07:31:07;;;;;;;;;;;20.50;63.50;;;;;;5031996;28;19917;-85
2022/10/28 07:33:32;;;;;;;;;;;20.40;63.50;;;;;;5045996;28;19917;-85
2022/10/28 07:35:58;;;;;;;;;;;20.30;63.50;;;;;;5031759;28;19924;-84
2022/10/28 07:38:25;;;;;;;;;;;20.30;64.20;;;;;;5049856;28;19943;-86
2022/10/28 07:40:50;;;;;;;;;;;20.30;65.10;;;;;;5049289;28;19909;-85
2022/10/28 07:43:16;;;;;;;;;;;20.30;64.50;;;;;;5049692;28;20024;-88
2022/10/28 07:45:41;;;;;;;;;;;20.40;64.60;;;;;;5048219;28;19955;-85
2022/10/28 07:48:08;;;;;;;;;;;20.30;64.30;;;;;;5031460;28;19991;-85
2022/10/28 07:50:33;;;;;;;;;;;20.30;65.00;;;;;;5049061;28;19952;-83
2022/10/28 07:52:59;;;;;;;;;;;20.20;65.50;;;;;;5048552;28;19952;-85
2022/10/28 07:55:25;;;;;;;;;;;20.10;66.60;;;;;;5049407;28;20376;-84
2022/10/28 07:57:50;;;;;;;;;;;20.30;65.30;;;;;;5031108;28;19913;-88
2022/10/28 08:00:16;;;;;;;;;;;20.30;65.50;;;;;;5036936;28;19939;-87
2022/10/28 08:02:41;;;;;;;;;;;20.30;65.50;;;;;;5033951;28;20355;-88
2022/10/28 08:05:07;;;;;;;;;;;20.50;65.20;;;;;;5026905;28;20455;-88
2022/10/28 08:07:33;;;;;;;;;;;20.70;64.90;;;;;;5018302;28;19921;-84
2022/10/28 08:09:58;;;;;;;;;;;20.80;64.70;;;;;;5025458;28;20019;-86
2022/10/28 08:12:24;;;;;;;;;;;20.90;64.20;;;;;;5031519;28;19916;-85
2022/10/28 08:14:49;;;;;;;;;;;20.90;64.20;;;;;;5035758;28;19925;-86
2022/10/28 08:17:15;;;;;;;;;;;20.90;65.80;;;;;;5034625;28;20435;-86
2022/10/28 08:19:41;;;;;;;;;;;20.80;66.30;;;;;;5032113;28;20433;-86
2022/10/28 08:22:06;;;;;;;;;;;20.90;67.30;;;;;;5010647;28;19939;-85
2022/10/28 08:24:32;;;;;;;;;;;21.00;65.10;;;;;;5029883;28;20319;-85
2022/10/28 08:26:57;;;;;;;;;;;21.00;64.70;;;;;;5032384;28;19913;-85
2022/10/28 08:29:23;;;;;;;;;;;21.10;64.80;;;;;;5031754;28;19920;-84
2022/10/28 08:31:49;;;;;;;;;;;21.10;65.90;;;;;;5032467;28;19909;-85
2022/10/28 08:34:14;;;;;;;;;;;21.10;65.50;;;;;;5031803;28;19920;-85
2022/10/28 08:36:40;;;;;;;;;;;21.20;66.30;;;;;;5037041;28;19916;-84
2022/10/28 08:39:05;;;;;;;;;;;21.20;66.10;;;;;;5047528;28;20320;-86
2022/10/28 08:41:38;;;;;;;;;;;21.10;66.20;;;;;;5029516;28;19916;-84
2022/10/28 08:44:27;;;;;;;;;;;21.00;65.50;;;;;;5030326;28;20316;-84
2022/10/28 08:47:12;;;;;;;;;;;21.00;66.80;;;;;;5030121;28;19913;-85
2022/10/28 08:49:40;;;;;;;;;;;20.90;67.50;;;;;;5019068;28;19952;-86
2022/10/28 08:52:22;;;;;;;;;;;20.90;68.40;;;;;;5029589;28;19975;-86
2022/10/28 08:54:51;;;;;;;;;;;20.90;68.20;;;;;;5024902;28;19924;-86
2022/10/28 08:57:19;;;;;;;;;;;21.00;69.20;;;;;;5046848;28;19913;-86
2022/10/28 08:59:46;;;;;;;;;;;20.90;72.40;;;;;;5024689;28;20602;-85
2022/10/28 09:02:21;;;;;;;;;;;20.90;74.50;;;;;;5014244;28;19920;-86
2022/10/28 09:04:47;;;;;;;;;;;20.80;73.00;;;;;;5022753;28;19917;-86
2022/10/28 09:07:18;;;;;;;;;;;20.80;73.50;;;;;;5033770;28;20003;-85
2022/10/28 09:09:44;;;;;;;;;;;20.90;70.80;;;;;;5033251;28;20269;-86
2022/10/28 09:12:22;;;;;;;;;;;21.00;70.20;;;;;;5030013;28;19917;-85
2022/10/28 09:14:48;;;;;;;;;;;20.90;72.90;;;;;;5032793;28;19925;-83
2022/10/28 09:17:13;;;;;;;;;;;21.00;69.80;;;;;;5033004;28;19913;-85
2022/10/28 09:19:51;;;;;;;;;;;21.00;71.20;;;;;;5047734;28;20120;-85
2022/10/28 09:22:23;;;;;;;;;;;21.00;71.40;;;;;;5029740;28;19920;-85
2022/10/28 09:24:48;;;;;;;;;;;21.00;68.70;;;;;;5048089;28;19920;-85
2022/10/28 09:27:17;;;;;;;;;;;21.10;68.30;;;;;;5055059;28;20615;-86
2022/10/28 09:29:49;;;;;;;;;;;21.30;66.80;;;;;;5047837;28;20015;-85
2022/10/28 09:32:17;;;;;;;;;;;21.40;72.40;;;;;;5047377;28;19917;-86
2022/10/28 09:34:45;;;;;;;;;;;21.50;71.70;;;;;;5047233;28;19928;-85
2022/10/28 09:37:27;;;;;;;;;;;21.80;69.30;;;;;;5038927;28;19942;-86
2022/10/28 09:39:58;;;;;;;;;;;22.10;72.40;;;;;;5034703;28;19917;-86
2022/10/28 09:42:26;;;;;;;;;;;22.20;68.60;;;;;;5043170;28;19916;-85
2022/10/28 09:45:01;;;;;;;;;;;22.10;74.00;;;;;;5046524;28;19917;-85
2022/10/28 09:47:29;;;;;;;;;;;21.90;74.80;;;;;;5024033;28;19923;-86
2022/10/28 09:49:57;;;;;;;;;;;21.80;77.80;;;;;;5027978;28;19912;-86
2022/10/28 09:52:26;;;;;;;;;;;21.70;74.70;;;;;;5026204;28;20634;-85
2022/10/28 09:54:52;;;;;;;;;;;21.60;74.40;;;;;;5039909;28;20712;-85
2022/10/28 09:57:18;;;;;;;;;;;21.50;77.60;;;;;;5021044;28;19923;-86
2022/10/28 09:59:44;;;;;;;;;;;21.30;78.80;;;;;;5026199;28;20179;-92
2022/10/28 10:02:25;;;;;;;;;;;21.40;78.70;;;;;;5031528;28;19914;-88
2022/10/28 10:04:52;;;;;;;;;;;21.50;77.80;;;;;;5039517;28;19916;-84
2022/10/28 10:07:24;;;;;;;;;;;22.00;75.60;;;;;;5048198;28;19918;-82
2022/10/28 10:09:50;;;;;;;;;;;22.80;72.10;;;;;;5036655;28;19913;-83
2022/10/28 10:12:16;;;;;;;;;;;23.20;79.10;;;;;;5037242;28;19975;-83
2022/10/28 10:14:44;;;;;;;;;;;23.10;77.20;;;;;;5033107;28;20365;-83
2022/10/28 10:17:18;;;;;;;;;;;23.20;74.30;;;;;;5036411;28;19924;-85
2022/10/28 10:20:01;;;;;;;;;;;23.20;75.80;;;;;;5049579;28;19912;-81
2022/10/28 10:22:28;;;;;;;;;;;23.50;76.90;;;;;;5032122;28;19924;-83
2022/10/28 10:24:53;;;;;;;;;;;23.50;75.60;;;;;;5050397;28;19931;-83
2022/10/28 10:27:19;;;;;;;;;;;23.70;73.60;;;;;;5050032;28;19913;-82
2022/10/28 10:29:46;;;;;;;;;;;23.60;73.90;;;;;;5037899;28;19931;-82
2022/10/28 10:32:17;;;;;;;;;;;23.50;72.40;;;;;;5014624;28;19979;-82
2022/10/28 10:35:09;;;;;;;;;;;23.50;73.30;;;;;;5030471;28;19953;-82
2022/10/28 10:37:35;;;;;;;;;;;23.60;70.50;;;;;;5031049;28;19983;-86
2022/10/28 10:40:05;;;;;;;;;;;23.70;70.10;;;;;;5032593;28;19917;-86
2022/10/28 10:42:32;;;;;;;;;;;23.60;70.00;;;;;;5050465;28;19913;-83
2022/10/28 10:45:14;;;;;;;;;;;23.40;70.70;;;;;;5048774;28;19921;-85
2022/10/28 10:47:40;;;;;;;;;;;23.60;70.10;;;;;;5050105;28;20490;-85
2022/10/28 10:50:18;;;;;;;;;;;23.60;71.00;;;;;;5049627;28;19917;-83
2022/10/28 10:52:47;;;;;;;;;;;23.50;74.70;;;;;;5049666;28;20419;-82
2022/10/28 10:55:19;;;;;;;;;;;23.40;74.00;;;;;;5032016;28;19917;-83
2022/10/28 10:57:45;;;;;;;;;;;23.30;77.40;;;;;;5024164;28;19917;-87
2022/10/28 11:00:15;;;;;;;;;;;23.40;75.60;;;;;;5050303;28;19912;-86
2022/10/28 11:02:44;;;;;;;;;;;23.30;74.80;;;;;;5028186;28;19966;-85
2022/10/28 11:05:10;;;;;;;;;;;23.30;73.80;;;;;;5032842;28;19921;-82
2022/10/28 11:07:36;;;;;;;;;;;23.30;71.70;;;;;;5025799;28;19967;-86
2022/10/28 11:10:02;;;;;;;;;;;23.30;71.70;;;;;;5031406;28;19920;-85
2022/10/28 11:12:34;;;;;;;;;;;23.40;74.10;;;;;;5035984;28;19920;-84
2022/10/28 11:15:00;;;;;;;;;;;23.50;71.70;;;;;;5016260;28;20705;-84
2022/10/28 11:17:30;;;;;;;;;;;23.50;71.90;;;;;;5041199;28;20312;-83
2022/10/28 11:19:57;;;;;;;;;;;23.50;70.90;;;;;;5046562;28;20556;-86
2022/10/28 11:22:41;;;;;;;;;;;23.60;72.00;;;;;;5031227;28;19919;-84
2022/10/28 11:25:21;;;;;;;;;;;23.60;72.90;;;;;;5022958;28;19969;-85
2022/10/28 11:27:57;;;;;;;;;;;23.70;72.10;;;;;;5030919;28;19913;-85
2022/10/28 11:30:28;;;;;;;;;;;23.70;71.20;;;;;;5045833;28;19924;-88
2022/10/28 11:33:12;;;;;;;;;;;23.70;70.10;;;;;;5031298;28;20010;-86
2022/10/28 11:35:40;;;;;;;;;;;23.60;71.60;;;;;;5049568;28;19982;-86
2022/10/28 11:38:29;;;;;;;;;;;23.70;70.60;;;;;;5049793;28;19921;-86
2022/10/28 11:41:00;;;;;;;;;;;23.90;73.40;;;;;;5011536;28;20392;-87
2022/10/28 11:43:35;;;;;;;;;;;23.90;73.20;;;;;;5030544;28;19917;-87
2022/10/28 11:46:05;;;;;;;;;;;23.90;71.10;;;;;;5037545;28;19913;-86
2022/10/28 11:48:40;;;;;;;;;;;23.80;70.30;;;;;;5049168;28;20391;-87
2022/10/28 11:51:05;;;;;;;;;;;23.90;71.40;;;;;;5046814;28;20295;-87
2022/10/28 11:53:39;;;;;;;;;;;23.90;71.70;;;;;;5030374;28;19924;-87
2022/10/28 11:56:23;;;;;;;;;;;24.00;73.10;;;;;;5042844;28;19927;-86
2022/10/28 11:58:51;;;;;;;;;;;24.10;72.60;;;;;;5048276;28;19920;-83
2022/10/28 12:01:26;;;;;;;;;;;24.00;70.90;;;;;;5048467;28;19917;-83
2022/10/28 12:03:58;;;;;;;;;;;24.00;71.70;;;;;;5029817;28;19923;-85
2022/10/28 12:06:26;;;;;;;;;;;24.10;72.90;;;;;;5048166;28;19924;-84
2022/10/28 12:09:00;;;;;;;;;;;24.20;74.00;;;;;;5047078;28;19920;-84
2022/10/28 12:11:45;;;;;;;;;;;24.10;73.00;;;;;;5034348;28;19917;-85
2022/10/28 12:14:11;;;;;;;;;;;24.10;73.10;;;;;;5021781;28;19921;-86
2022/10/28 12:16:39;;;;;;;;;;;24.00;73.40;;;;;;5044708;28;19917;-86
2022/10/28 12:19:11;;;;;;;;;;;23.80;73.10;;;;;;5028948;28;19913;-86
2022/10/28 12:21:46;;;;;;;;;;;23.80;72.70;;;;;;5029668;28;19913;-85
2022/10/28 12:24:18;;;;;;;;;;;24.00;73.60;;;;;;5048395;28;20509;-85
2022/10/28 12:26:48;;;;;;;;;;;24.20;72.90;;;;;;5030178;28;19921;-86
2022/10/28 12:29:13;;;;;;;;;;;24.10;72.50;;;;;;5048854;28;19948;-86
2022/10/28 12:31:41;;;;;;;;;;;24.20;71.10;;;;;;5048622;28;20359;-85
2022/10/28 12:34:14;;;;;;;;;;;24.30;73.40;;;;;;5048819;28;19913;-85
2022/10/28 12:36:49;;;;;;;;;;;24.30;73.60;;;;;;5048541;28;19940;-86
2022/10/28 12:39:31;;;;;;;;;;;24.40;73.30;;;;;;5048521;28;19935;-85
2022/10/28 12:42:08;;;;;;;;;;;24.70;75.10;;;;;;5030601;28;19913;-86
2022/10/28 12:44:36;;;;;;;;;;;24.80;73.30;;;;;;5048662;28;20015;-85
2022/10/28 12:47:04;;;;;;;;;;;24.80;73.70;;;;;;5048878;28;20291;-84
2022/10/28 12:49:36;;;;;;;;;;;24.70;72.80;;;;;;5048142;28;19908;-85
2022/10/28 12:52:06;;;;;;;;;;;24.60;73.40;;;;;;5048380;28;19999;-86
2022/10/28 12:54:37;;;;;;;;;;;24.40;72.40;;;;;;5048497;28;19913;-85
2022/10/28 12:57:08;;;;;;;;;;;24.10;73.30;;;;;;5048186;28;19951;-86
2022/10/28 12:59:40;;;;;;;;;;;23.90;76.10;;;;;;5030031;28;19913;-85
2022/10/28 13:02:10;;;;;;;;;;;23.80;74.90;;;;;;5043441;28;20731;-85
2022/10/28 13:04:36;;;;;;;;;;;23.90;76.50;;;;;;5039898;28;19917;-86
2022/10/28 13:07:12;;;;;;;;;;;24.10;75.10;;;;;;5047449;28;20411;-86
2022/10/28 13:09:56;;;;;;;;;;;24.30;74.70;;;;;;5047638;28;19919;-85
2022/10/28 13:12:40;;;;;;;;;;;24.30;75.50;;;;;;5036755;28;20352;-84
2022/10/28 13:15:06;;;;;;;;;;;24.20;75.30;;;;;;5047424;28;19929;-86
2022/10/28 13:17:42;;;;;;;;;;;24.10;74.00;;;;;;5052541;28;19920;-85
2022/10/28 13:20:27;;;;;;;;;;;24.10;76.00;;;;;;5047140;28;20405;-85
2022/10/28 13:23:11;;;;;;;;;;;24.00;77.00;;;;;;5033893;28;19920;-86
2022/10/28 13:25:42;;;;;;;;;;;24.00;77.60;;;;;;5052130;28;20051;-85
2022/10/28 13:28:14;;;;;;;;;;;23.80;81.00;;;;;;5051798;28;19913;-85
2022/10/28 13:30:51;;;;;;;;;;;23.70;81.20;;;;;;5052042;28;19962;-85
2022/10/28 13:33:20;;;;;;;;;;;23.50;82.50;;;;;;5051554;28;19924;-85
2022/10/28 13:35:45;;;;;;;;;;;23.30;83.30;;;;;;5051288;28;20007;-86
2022/10/28 13:38:12;;;;;;;;;;;23.20;83.50;;;;;;5033816;28;20027;-85
2022/10/28 13:40:37;;;;;;;;;;;23.20;82.20;;;;;;5051835;28;19985;-85
2022/10/28 13:43:03;;;;;;;;;;;23.20;82.00;;;;;;5052169;28;19980;-86
2022/10/28 13:45:47;;;;;;;;;;;23.20;81.00;;;;;;5051744;28;19966;-85
2022/10/28 13:48:28;;;;;;;;;;;23.10;81.50;;;;;;5051862;28;19935;-85
2022/10/28 13:51:19;;;;;;;;;;;23.20;80.00;;;;;;5046998;28;19939;-86
2022/10/28 13:53:45;;;;;;;;;;;23.20;79.90;;;;;;5047058;28;19908;-85
2022/10/28 13:56:25;;;;;;;;;;;23.20;79.20;;;;;;5049768;28;19919;-86
2022/10/28 13:58:53;;;;;;;;;;;23.10;78.70;;;;;;5040375;28;20377;-86
2022/10/28 14:01:35;;;;;;;;;;;23.10;78.50;;;;;;5039883;28;19912;-86
2022/10/28 14:04:02;;;;;;;;;;;23.10;76.10;;;;;;5050140;28;19952;-86
2022/10/28 14:06:31;;;;;;;;;;;23.20;76.20;;;;;;5032902;28;20011;-85
2022/10/28 14:08:57;;;;;;;;;;;23.20;76.10;;;;;;5050752;28;19912;-85
2022/10/28 14:11:24;;;;;;;;;;;23.30;76.10;;;;;;5050840;28;19912;-85
2022/10/28 14:13:51;;;;;;;;;;;23.20;76.40;;;;;;5050689;28;19909;-85
2022/10/28 14:16:23;;;;;;;;;;;23.20;76.90;;;;;;5050854;28;19913;-85
2022/10/28 14:18:59;;;;;;;;;;;23.20;77.00;;;;;;5031801;28;19971;-85
2022/10/28 14:21:38;;;;;;;;;;;23.00;77.80;;;;;;5050746;28;19909;-86
2022/10/28 14:24:08;;;;;;;;;;;23.00;78.30;;;;;;5032821;28;19940;-85
2022/10/28 14:26:53;;;;;;;;;;;23.10;76.60;;;;;;5049869;28;19913;-85